createdAt,value
2023-04-08T00:01:16.762Z,81.18
2023-04-08T00:02:58.623Z,81.20
2023-04-08T00:04:52.828Z,81.09
2023-04-08T00:06:39.077Z,80.89
2023-04-08T00:08:19.606Z,80.78
2023-04-08T00:09:45.143Z,80.93
2023-04-08T00:11:19.248Z,80.93
2023-04-08T00:13:05.454Z,80.87
2023-04-08T00:14:41.506Z,80.73
2023-04-08T00:16:26.847Z,80.82
2023-04-08T00:18:15.978Z,80.89
2023-04-08T00:20:02.857Z,80.83
2023-04-08T00:21:48.921Z,80.80
2023-04-08T00:23:23.794Z,80.67
2023-04-08T00:25:12.608Z,80.76
2023-04-08T00:26:46.447Z,80.43
2023-04-08T00:28:21.175Z,80.42
2023-04-08T00:30:11.954Z,80.32
2023-04-08T00:31:45.731Z,80.40
2023-04-08T00:33:30.963Z,80.32
2023-04-08T00:35:12.311Z,80.20
2023-04-08T00:36:53.548Z,80.04
2023-04-08T00:38:27.573Z,80.05
2023-04-08T00:40:09.742Z,80.16
2023-04-08T00:42:03.055Z,79.84
2023-04-08T00:43:48.171Z,79.89
2023-04-08T00:45:14.544Z,79.48
2023-04-08T00:46:49.505Z,79.43
2023-04-08T00:48:23.104Z,79.31
2023-04-08T00:50:16.731Z,79.52
2023-04-08T00:52:02.310Z,79.44
2023-04-08T00:53:43.669Z,79.47
2023-04-08T00:55:20.038Z,79.25
2023-04-08T00:57:14.735Z,79.27
2023-04-08T00:58:43.958Z,79.36
2023-04-08T01:00:29.596Z,79.43
2023-04-08T01:02:14.858Z,79.29
2023-04-08T01:04:09.832Z,79.58
2023-04-08T01:05:56.447Z,79.04
2023-04-08T01:07:42.077Z,79.11
2023-04-08T01:09:27.241Z,79.45
2023-04-08T01:11:20.911Z,79.37
2023-04-08T01:12:49.753Z,79.50
2023-04-08T01:14:23.524Z,79.48
2023-04-08T01:16:01.154Z,79.15
2023-04-08T01:17:34.909Z,79.30
2023-04-08T01:19:03.732Z,79.29
2023-04-08T01:20:33.450Z,79.09
2023-04-08T01:22:09.453Z,78.96
2023-04-08T01:23:54.455Z,79.13
2023-04-08T01:25:40.383Z,79.18
2023-04-08T01:27:25.757Z,79.06
2023-04-08T01:29:10.689Z,79.38
2023-04-08T01:30:44.106Z,78.95
2023-04-08T01:32:29.458Z,79.04
2023-04-08T01:34:07.094Z,79.06
2023-04-08T01:36:00.919Z,79.11
2023-04-08T01:37:37.047Z,79.23
2023-04-08T01:39:05.848Z,79.29
2023-04-08T01:40:52.152Z,79.25
2023-04-08T01:42:37.727Z,79.16
2023-04-08T01:44:13.500Z,79.32
2023-04-08T01:46:07.097Z,79.08
2023-04-08T01:47:52.588Z,79.28
2023-04-08T01:49:28.558Z,79.17
2023-04-08T01:51:13.548Z,79.17
2023-04-08T01:52:54.349Z,79.09
2023-04-08T01:54:16.437Z,79.20
2023-04-08T01:56:00.622Z,79.18
2023-04-08T01:57:37.416Z,79.02
2023-04-08T01:59:10.961Z,78.45
2023-04-08T02:00:44.155Z,78.40
2023-04-08T02:02:11.200Z,78.15
2023-04-08T02:03:56.360Z,78.18
2023-04-08T02:05:30.664Z,78.03
2023-04-08T02:07:11.567Z,77.89
2023-04-08T02:08:44.811Z,77.93
2023-04-08T02:10:18.494Z,78.05
2023-04-08T02:12:12.857Z,77.86
2023-04-08T02:14:00.377Z,77.97
2023-04-08T02:15:54.312Z,77.83
2023-04-08T02:17:49.804Z,77.85
2023-04-08T02:19:35.467Z,77.36
2023-04-08T02:21:12.428Z,77.39
2023-04-08T02:22:57.382Z,77.36
2023-04-08T02:24:31.097Z,77.19
2023-04-08T02:26:15.815Z,77.19
2023-04-08T02:27:49.327Z,77.29
2023-04-08T02:29:34.966Z,77.18
2023-04-08T02:31:12.416Z,77.07
2023-04-08T02:33:06.137Z,77.02
2023-04-08T02:34:56.764Z,76.55
2023-04-08T02:36:42.945Z,76.70
2023-04-08T02:38:18.665Z,76.45
2023-04-08T02:39:51.855Z,76.33
2023-04-08T02:41:37.299Z,76.63
2023-04-08T02:43:12.801Z,76.53
2023-04-08T02:44:58.224Z,76.49
2023-04-08T02:46:31.480Z,76.57
2023-04-08T02:48:16.195Z,76.46
2023-04-08T02:50:06.468Z,76.26
2023-04-08T02:51:47.184Z,76.05
2023-04-08T02:53:10.685Z,76.16
2023-04-08T02:54:51.528Z,76.27
2023-04-08T02:56:20.428Z,76.59
2023-04-08T02:57:53.827Z,76.49
2023-04-08T02:59:38.962Z,76.38
2023-04-08T03:01:31.721Z,76.10
2023-04-08T03:03:16.587Z,75.99
2023-04-08T03:04:40.647Z,76.29
2023-04-08T03:06:24.197Z,76.35
2023-04-08T03:07:57.120Z,75.98
2023-04-08T03:09:42.536Z,75.97
2023-04-08T03:11:11.641Z,76.00
2023-04-08T03:12:47.842Z,76.09
2023-04-08T03:14:23.418Z,76.08
2023-04-08T03:16:16.534Z,76.05
2023-04-08T03:17:51.763Z,76.07
2023-04-08T03:19:25.393Z,75.94
2023-04-08T03:23:12.300Z,75.95
2023-04-08T03:25:05.673Z,76.02
2023-04-08T03:26:39.184Z,75.92
2023-04-08T03:28:11.024Z,75.73
2023-04-08T03:29:52.631Z,75.97
2023-04-08T03:31:35.846Z,75.57
2023-04-08T03:33:08.796Z,75.65
2023-04-08T03:35:01.757Z,75.26
2023-04-08T03:36:50.068Z,75.35
2023-04-08T03:38:35.506Z,75.46
2023-04-08T03:40:20.322Z,75.58
2023-04-08T03:41:44.845Z,75.69
2023-04-08T03:43:30.422Z,75.95
2023-04-08T03:44:59.608Z,75.86
2023-04-08T03:46:45.226Z,75.71
2023-04-08T03:48:30.216Z,75.94
2023-04-08T03:50:03.291Z,75.81
2023-04-08T03:51:44.385Z,75.91
2023-04-08T03:53:29.513Z,75.70
2023-04-08T03:55:04.826Z,75.58
2023-04-08T03:56:27.083Z,75.35
2023-04-08T03:58:00.165Z,75.37
2023-04-08T03:59:33.866Z,75.35
2023-04-08T04:01:11.614Z,75.15
2023-04-08T04:02:58.801Z,75.25
2023-04-08T04:04:48.838Z,75.10
2023-04-08T04:06:33.781Z,75.37
2023-04-08T04:08:15.268Z,75.61
2023-04-08T04:10:01.028Z,75.27
2023-04-08T04:11:34.598Z,75.04
2023-04-08T04:13:21.785Z,75.27
2023-04-08T04:14:57.067Z,75.33
2023-04-08T04:16:42.487Z,75.12
2023-04-08T04:18:23.363Z,75.22
2023-04-08T04:20:11.605Z,75.42
2023-04-08T04:21:45.599Z,75.61
2023-04-08T04:23:21.425Z,75.77
2023-04-08T04:24:42.933Z,75.49
2023-04-08T04:26:32.781Z,75.32
2023-04-08T04:28:16.241Z,75.37
2023-04-08T04:29:57.146Z,75.42
2023-04-08T04:31:19.449Z,75.31
2023-04-08T04:33:04.214Z,75.59
2023-04-08T04:34:53.528Z,75.41
2023-04-08T04:36:39.101Z,75.47
2023-04-08T04:38:14.205Z,75.32
2023-04-08T04:40:07.577Z,75.41
2023-04-08T04:42:02.802Z,75.31
2023-04-08T04:43:48.205Z,75.74
2023-04-08T04:45:24.314Z,75.66
2023-04-08T04:47:00.232Z,75.67
2023-04-08T04:48:29.385Z,75.77
2023-04-08T04:50:17.832Z,75.18
2023-04-08T04:51:58.224Z,75.46
2023-04-08T04:53:33.999Z,75.20
2023-04-08T04:55:07.251Z,75.07
2023-04-08T04:56:34.597Z,75.11
2023-04-08T04:58:09.991Z,75.04
2023-04-08T04:59:55.431Z,75.01
2023-04-08T05:01:29.103Z,74.74
2023-04-08T05:03:10.872Z,74.83
2023-04-08T05:04:56.171Z,74.81
2023-04-08T05:06:32.989Z,74.54
2023-04-08T05:08:13.224Z,74.49
2023-04-08T05:09:54.346Z,74.67
2023-04-08T05:11:28.061Z,74.42
2023-04-08T05:13:01.277Z,74.18
2023-04-08T05:14:27.907Z,74.33
2023-04-08T05:16:08.139Z,73.86
2023-04-08T05:17:42.093Z,74.28
2023-04-08T05:19:26.834Z,74.17
2023-04-08T05:21:00.066Z,73.96
2023-04-08T05:22:45.264Z,73.75
2023-04-08T05:24:18.622Z,73.90
2023-04-08T05:26:03.744Z,73.88
2023-04-08T05:27:40.731Z,73.79
2023-04-08T05:29:25.626Z,73.83
2023-04-08T05:30:58.955Z,73.57
2023-04-08T05:32:39.920Z,73.30
2023-04-08T05:34:25.119Z,73.34
2023-04-08T05:36:08.588Z,73.31
2023-04-08T05:37:44.168Z,73.34
2023-04-08T05:39:20.005Z,73.50
2023-04-08T05:41:04.672Z,73.12
2023-04-08T05:42:37.843Z,73.63
2023-04-08T05:44:01.657Z,73.12
2023-04-08T05:45:35.635Z,73.37
2023-04-08T05:47:16.318Z,73.55
2023-04-08T05:49:01.273Z,72.98
2023-04-08T05:50:46.767Z,73.29
2023-04-08T05:52:31.862Z,72.83
2023-04-08T05:54:07.445Z,72.79
2023-04-08T05:55:41.223Z,73.04
2023-04-08T05:57:16.731Z,72.89
2023-04-08T05:58:53.824Z,72.46
2023-04-08T06:00:16.774Z,72.27
2023-04-08T06:02:01.706Z,72.35
2023-04-08T06:03:47.670Z,72.02
2023-04-08T06:05:23.478Z,71.80
2023-04-08T06:06:57.746Z,72.26
2023-04-08T06:08:31.603Z,72.11
2023-04-08T06:10:20.305Z,71.51
2023-04-08T06:11:58.213Z,71.67
2023-04-08T06:13:43.834Z,71.18
2023-04-08T06:15:19.208Z,70.72
2023-04-08T06:16:55.735Z,70.57
2023-04-08T06:18:41.123Z,70.78
2023-04-08T06:20:02.716Z,70.84
2023-04-08T06:21:38.446Z,70.40
2023-04-08T06:22:59.623Z,70.26
2023-04-08T06:24:35.437Z,69.63
2023-04-08T06:26:08.837Z,69.76
2023-04-08T06:27:51.328Z,69.52
2023-04-08T06:29:28.028Z,69.80
2023-04-08T06:31:01.110Z,69.67
2023-04-08T06:32:34.694Z,69.27
2023-04-08T06:34:19.593Z,68.68
2023-04-08T06:36:04.631Z,68.79
2023-04-08T06:37:45.897Z,68.78
2023-04-08T06:39:31.149Z,68.61
2023-04-08T06:41:01.845Z,68.90
2023-04-08T06:42:47.689Z,68.10
2023-04-08T06:44:50.537Z,68.04
2023-04-08T06:46:31.639Z,67.35
2023-04-08T06:48:25.005Z,67.62
2023-04-08T06:50:05.714Z,66.95
2023-04-08T06:51:39.237Z,67.23
2023-04-08T06:53:01.274Z,67.04
2023-04-08T06:54:54.876Z,66.41
2023-04-08T06:56:30.839Z,65.68
2023-04-08T06:58:02.311Z,66.15
2023-04-08T06:59:36.294Z,65.57
2023-04-08T07:01:16.750Z,66.09
2023-04-08T07:02:53.538Z,65.64
2023-04-08T07:04:29.617Z,65.71
2023-04-08T07:06:17.965Z,65.66
2023-04-08T07:08:00.021Z,66.19
2023-04-08T07:09:34.692Z,65.57
2023-04-08T07:11:16.246Z,65.26
2023-04-08T07:12:49.819Z,64.77
2023-04-08T07:14:34.895Z,64.98
2023-04-08T07:16:18.817Z,65.20
2023-04-08T07:18:03.929Z,65.18
2023-04-08T07:19:52.364Z,64.76
2023-04-08T07:21:33.063Z,65.03
2023-04-08T07:23:04.395Z,64.16
2023-04-08T07:24:49.715Z,64.16
2023-04-08T07:26:11.473Z,64.05
2023-04-08T07:27:44.651Z,64.12
2023-04-08T07:29:29.934Z,64.28
2023-04-08T07:31:15.073Z,64.20
2023-04-08T07:33:08.880Z,63.95
2023-04-08T07:34:42.415Z,63.76
2023-04-08T07:36:26.497Z,63.64
2023-04-08T07:38:11.390Z,63.90
2023-04-08T07:39:56.608Z,63.06
2023-04-08T07:41:26.211Z,62.75
2023-04-08T07:43:10.981Z,62.77
2023-04-08T07:45:04.795Z,62.91
2023-04-08T07:46:41.190Z,63.25
2023-04-08T07:48:22.201Z,62.89
2023-04-08T07:49:56.772Z,63.09
2023-04-08T07:51:25.825Z,63.03
2023-04-08T07:52:57.443Z,62.76
2023-04-08T07:54:43.113Z,62.65
2023-04-08T07:56:23.905Z,62.32
2023-04-08T07:57:57.916Z,62.13
2023-04-08T07:59:32.240Z,62.12
2023-04-08T08:01:19.117Z,62.25
2023-04-08T08:02:55.076Z,62.19
2023-04-08T08:04:40.798Z,62.67
2023-04-08T08:06:19.163Z,62.37
2023-04-08T08:08:04.430Z,62.40
2023-04-08T08:09:45.517Z,61.96
2023-04-08T08:11:07.149Z,62.09
2023-04-08T08:12:45.208Z,62.38
2023-04-08T08:14:30.749Z,62.60
2023-04-08T08:16:11.255Z,62.72
2023-04-08T08:17:45.476Z,62.38
2023-04-08T08:19:18.983Z,62.91
2023-04-08T08:20:43.567Z,62.82
2023-04-08T08:22:19.271Z,62.68
2023-04-08T08:23:52.591Z,62.12
2023-04-08T08:25:28.473Z,62.20
2023-04-08T08:27:02.838Z,62.00
2023-04-08T08:28:43.831Z,62.36
2023-04-08T08:30:28.985Z,62.74
2023-04-08T08:32:02.372Z,62.44
2023-04-08T08:33:38.706Z,61.72
2023-04-08T08:35:23.751Z,61.99
2023-04-08T08:37:09.012Z,61.68
2023-04-08T08:38:44.753Z,62.15
2023-04-08T08:40:26.537Z,61.94
2023-04-08T08:42:09.732Z,61.49
2023-04-08T08:43:55.470Z,61.28
2023-04-08T08:45:29.319Z,61.32
2023-04-08T08:47:04.369Z,60.49
2023-04-08T08:48:50.546Z,60.68
2023-04-08T08:50:35.476Z,60.52
2023-04-08T08:52:22.991Z,60.84
2023-04-08T08:54:08.091Z,60.97
2023-04-08T08:57:34.109Z,60.76
2023-04-08T08:59:02.666Z,61.05
2023-04-08T09:00:48.180Z,61.01
2023-04-08T09:02:33.930Z,61.24
2023-04-08T09:04:07.617Z,61.62
2023-04-08T09:05:43.911Z,61.39
2023-04-08T09:07:27.627Z,61.18
2023-04-08T09:09:12.266Z,61.62
2023-04-08T09:10:46.260Z,61.62
2023-04-08T09:12:31.471Z,61.09
2023-04-08T09:14:07.591Z,61.36
2023-04-08T09:15:41.455Z,61.40
2023-04-08T09:17:05.230Z,60.96
2023-04-08T09:18:42.089Z,61.32
2023-04-08T09:20:15.419Z,60.89
2023-04-08T09:21:56.313Z,60.55
2023-04-08T09:23:29.974Z,61.51
2023-04-08T09:25:05.171Z,61.09
2023-04-08T09:26:38.705Z,61.46
2023-04-08T09:28:23.544Z,61.02
2023-04-08T09:29:56.982Z,60.18
2023-04-08T09:31:19.345Z,58.92
2023-04-08T09:33:04.425Z,58.81
2023-04-08T09:34:37.966Z,58.12
2023-04-08T09:36:19.858Z,58.19
2023-04-08T09:37:55.376Z,57.70
2023-04-08T09:39:24.557Z,57.95
2023-04-08T09:41:09.527Z,58.50
2023-04-08T09:42:55.617Z,57.77
2023-04-08T09:44:42.123Z,58.12
2023-04-08T09:46:24.046Z,58.02
2023-04-08T09:47:50.674Z,57.69
2023-04-08T09:49:24.317Z,58.03
2023-04-08T09:50:57.714Z,57.48
2023-04-08T09:52:43.805Z,57.27
2023-04-08T09:54:17.116Z,57.46
2023-04-08T09:55:48.177Z,57.37
2023-04-08T09:57:14.111Z,57.31
2023-04-08T09:59:00.980Z,57.22
2023-04-08T10:00:34.590Z,57.20
2023-04-08T10:02:19.445Z,57.21
2023-04-08T10:04:00.299Z,57.20
2023-04-08T10:05:22.350Z,57.12
2023-04-08T10:07:13.228Z,56.65
2023-04-08T10:08:36.005Z,56.68
2023-04-08T10:10:20.737Z,57.60
2023-04-08T10:11:56.556Z,57.18
2023-04-08T10:13:23.439Z,56.28
2023-04-08T10:15:04.071Z,56.62
2023-04-08T10:16:35.728Z,55.96
2023-04-08T10:18:11.896Z,55.34
2023-04-08T10:19:44.737Z,55.43
2023-04-08T10:21:29.509Z,54.24
2023-04-08T10:23:15.249Z,54.50
2023-04-08T10:27:18.905Z,54.70
2023-04-08T10:29:08.719Z,54.75
2023-04-08T10:30:54.109Z,54.39
2023-04-08T10:32:36.430Z,54.01
2023-04-08T10:34:21.460Z,54.15
2023-04-08T10:35:55.334Z,53.72
2023-04-08T10:37:41.714Z,53.34
2023-04-08T10:39:35.739Z,53.50
2023-04-08T10:41:23.505Z,52.52
2023-04-08T10:42:54.785Z,52.13
2023-04-08T10:44:23.932Z,52.41
2023-04-08T10:46:18.010Z,51.68
2023-04-08T10:48:03.539Z,51.02
2023-04-08T10:49:57.364Z,50.98
2023-04-08T10:51:44.383Z,50.49
2023-04-08T10:53:29.587Z,50.07
2023-04-08T10:55:01.142Z,49.54
2023-04-08T10:56:46.346Z,48.91
2023-04-08T10:58:31.641Z,49.29
2023-04-08T11:00:25.036Z,48.27
2023-04-08T11:02:15.172Z,48.35
2023-04-08T11:03:49.028Z,47.60
2023-04-08T11:05:35.293Z,46.96
2023-04-08T11:07:09.384Z,47.06
2023-04-08T11:08:54.350Z,47.04
2023-04-08T11:10:39.429Z,46.37
2023-04-08T11:12:03.448Z,45.72
2023-04-08T11:13:51.582Z,45.20
2023-04-08T11:15:37.628Z,43.83
2023-04-08T11:17:20.741Z,43.95
2023-04-08T11:18:54.124Z,44.50
2023-04-08T11:20:37.027Z,44.41
2023-04-08T11:22:29.276Z,45.16
2023-04-08T11:24:09.831Z,45.21
2023-04-08T11:25:43.430Z,43.79
2023-04-08T11:27:16.853Z,42.56
2023-04-08T11:28:51.762Z,42.82
2023-04-08T11:30:36.609Z,42.98
2023-04-08T11:32:26.810Z,41.95
2023-04-08T11:34:00.048Z,40.70
2023-04-08T11:35:33.619Z,40.42
2023-04-08T11:37:27.918Z,42.02
2023-04-08T11:39:05.314Z,42.58
2023-04-08T11:40:50.698Z,43.75
2023-04-08T11:42:26.381Z,44.73
2023-04-08T11:43:57.271Z,45.00
2023-04-08T11:45:44.499Z,45.11
2023-04-08T11:47:26.201Z,45.15
2023-04-08T11:48:59.446Z,46.60
2023-04-08T11:50:35.396Z,47.27
2023-04-08T11:52:06.460Z,46.35
2023-04-08T11:53:40.005Z,47.06
2023-04-08T11:55:23.538Z,45.87
2023-04-08T11:57:09.900Z,45.60
2023-04-08T11:58:57.240Z,46.20
2023-04-08T12:00:42.859Z,46.18
2023-04-08T12:02:27.552Z,45.84
2023-04-08T12:04:04.533Z,45.63
2023-04-08T12:05:38.230Z,45.47
2023-04-08T12:07:14.214Z,46.11
2023-04-08T12:09:07.712Z,45.56
2023-04-08T12:10:35.087Z,46.75
2023-04-08T12:12:09.024Z,48.52
2023-04-08T12:13:54.492Z,46.55
2023-04-08T12:15:30.074Z,45.51
2023-04-08T12:17:14.462Z,44.37
2023-04-08T12:19:08.810Z,43.37
2023-04-08T12:20:54.792Z,43.27
2023-04-08T12:22:40.201Z,41.81
2023-04-08T12:24:09.214Z,42.30
2023-04-08T12:25:56.115Z,41.51
2023-04-08T12:27:41.906Z,40.34
2023-04-08T12:29:15.297Z,40.25
2023-04-08T12:30:49.045Z,40.10
2023-04-08T12:32:34.053Z,40.22
2023-04-08T12:33:55.830Z,40.52
2023-04-08T12:35:37.083Z,40.64
2023-04-08T12:37:12.582Z,40.98
2023-04-08T12:38:37.472Z,40.61
2023-04-08T12:40:22.661Z,40.33
2023-04-08T12:42:10.750Z,40.43
2023-04-08T12:43:35.417Z,40.65
2023-04-08T12:45:11.221Z,41.35
2023-04-08T12:46:50.282Z,41.90
2023-04-08T12:48:14.107Z,42.32
2023-04-08T12:49:49.805Z,41.87
2023-04-08T12:51:26.807Z,41.87
2023-04-08T12:52:50.827Z,42.11
2023-04-08T12:54:20.856Z,41.93
2023-04-08T12:56:10.145Z,41.74
2023-04-08T12:57:34.619Z,41.74
2023-04-08T12:59:00.907Z,41.58
2023-04-08T13:00:46.220Z,43.02
2023-04-08T13:02:31.912Z,42.69
2023-04-08T13:04:08.445Z,42.06
2023-04-08T13:05:43.088Z,42.34
2023-04-08T13:07:24.498Z,41.52
2023-04-08T13:08:57.712Z,41.02
2023-04-08T13:10:43.124Z,40.74
2023-04-08T13:12:04.996Z,39.16
2023-04-08T13:13:35.005Z,38.44
2023-04-08T13:15:08.292Z,38.23
2023-04-08T13:16:42.166Z,37.87
2023-04-08T13:18:04.935Z,37.49
2023-04-08T13:19:49.871Z,36.43
2023-04-08T13:21:21.569Z,35.89
2023-04-08T13:22:54.906Z,34.60
2023-04-08T13:24:21.263Z,34.76
2023-04-08T13:25:42.842Z,35.64
2023-04-08T13:27:16.044Z,35.23
2023-04-08T13:28:53.765Z,34.70
2023-04-08T13:30:30.474Z,34.73
2023-04-08T13:32:15.796Z,34.36
2023-04-08T13:33:42.716Z,34.48
2023-04-08T13:35:27.934Z,34.86
2023-04-08T13:36:59.484Z,35.49
2023-04-08T13:38:45.207Z,35.91
2023-04-08T13:40:18.633Z,35.33
2023-04-08T13:41:52.810Z,34.28
2023-04-08T13:43:17.217Z,34.15
2023-04-08T13:44:50.879Z,34.49
2023-04-08T13:46:17.147Z,34.86
2023-04-08T13:47:39.474Z,34.80
2023-04-08T13:49:16.791Z,35.27
2023-04-08T13:50:50.180Z,35.31
2023-04-08T13:52:26.115Z,35.40
2023-04-08T13:53:59.550Z,35.13
2023-04-08T13:55:32.942Z,34.26
2023-04-08T13:57:17.538Z,33.47
2023-04-08T13:58:49.965Z,33.10
2023-04-08T14:00:28.504Z,33.08
2023-04-08T14:02:13.633Z,33.40
2023-04-08T14:04:07.363Z,34.47
2023-04-08T14:05:38.842Z,34.55
2023-04-08T14:07:19.202Z,34.99
2023-04-08T14:08:43.353Z,35.44
2023-04-08T14:10:05.098Z,36.40
2023-04-08T14:11:46.003Z,36.86
2023-04-08T14:13:21.480Z,36.76
2023-04-08T14:14:55.427Z,37.50
2023-04-08T14:16:41.658Z,38.44
2023-04-08T14:18:17.586Z,37.69
2023-04-08T14:19:41.868Z,38.66
2023-04-08T14:21:26.800Z,39.52
2023-04-08T14:23:00.591Z,39.30
2023-04-08T14:24:24.873Z,39.99
2023-04-08T14:26:10.042Z,39.51
2023-04-08T14:27:58.858Z,38.34
2023-04-08T14:29:32.251Z,38.82
2023-04-08T14:31:06.144Z,38.57
2023-04-08T14:32:52.046Z,37.21
2023-04-08T14:34:25.735Z,37.77
2023-04-08T14:35:56.823Z,37.87
2023-04-08T14:37:33.515Z,38.73
2023-04-08T14:39:06.940Z,39.13
2023-04-08T14:40:52.267Z,39.85
2023-04-08T14:42:37.266Z,40.14
2023-04-08T14:44:12.490Z,39.58
2023-04-08T14:45:55.787Z,39.41
2023-04-08T14:47:19.868Z,37.25
2023-04-08T14:49:04.714Z,38.14
2023-04-08T14:50:30.785Z,38.22
2023-04-08T14:52:15.905Z,38.04
2023-04-08T14:53:49.813Z,38.53
2023-04-08T14:55:25.399Z,39.14
2023-04-08T14:57:03.998Z,38.96
2023-04-08T14:58:39.924Z,39.05
2023-04-08T15:00:12.163Z,39.63
2023-04-08T15:01:45.907Z,40.34
2023-04-08T15:03:11.144Z,40.68
2023-04-08T15:05:01.100Z,40.36
2023-04-08T15:06:38.991Z,39.68
2023-04-08T15:08:14.977Z,39.94
2023-04-08T15:09:48.522Z,39.93
2023-04-08T15:11:10.569Z,40.19
2023-04-08T15:12:56.791Z,40.74
2023-04-08T15:14:21.070Z,40.79
2023-04-08T15:15:43.321Z,41.10
2023-04-08T15:17:12.527Z,41.95
2023-04-08T15:18:41.916Z,42.13
2023-04-08T15:20:22.829Z,42.50
2023-04-08T15:22:09.117Z,41.93
2023-04-08T15:23:44.885Z,42.21
2023-04-08T15:25:30.335Z,42.00
2023-04-08T15:27:06.927Z,42.06
2023-04-08T15:28:44.244Z,42.73
2023-04-08T15:30:29.404Z,43.55
2023-04-08T15:32:05.465Z,43.65
2023-04-08T15:33:41.162Z,43.77
2023-04-08T15:35:10.060Z,44.25
2023-04-08T15:37:06.785Z,44.56
2023-04-08T15:38:49.840Z,44.54
2023-04-08T15:40:35.067Z,45.03
2023-04-08T15:42:14.592Z,45.48
2023-04-08T15:43:48.604Z,46.14
2023-04-08T15:45:24.264Z,46.12
2023-04-08T15:47:05.327Z,46.61
2023-04-08T15:48:39.162Z,46.98
2023-04-08T15:50:14.845Z,47.44
2023-04-08T15:51:51.128Z,47.79
2023-04-08T15:53:31.631Z,47.46
2023-04-08T15:55:02.676Z,47.73
2023-04-08T15:56:29.432Z,47.73
2023-04-08T15:58:05.607Z,47.72
2023-04-08T15:59:39.783Z,47.24
2023-04-08T16:01:13.530Z,47.88
2023-04-08T16:02:47.533Z,48.03
2023-04-08T16:04:21.669Z,47.99
2023-04-08T16:06:07.822Z,48.21
2023-04-08T16:07:49.156Z,48.53
2023-04-08T16:09:31.789Z,49.04
2023-04-08T16:11:18.032Z,49.13
2023-04-08T16:13:03.246Z,49.17
2023-04-08T16:14:36.565Z,49.35
2023-04-08T16:16:12.259Z,49.64
2023-04-08T16:17:45.854Z,49.73
2023-04-08T16:19:14.833Z,49.87
2023-04-08T16:20:37.143Z,50.44
2023-04-08T16:22:21.583Z,50.94
2023-04-08T16:23:54.975Z,51.13
2023-04-08T16:25:40.231Z,51.75
2023-04-08T16:29:23.142Z,51.70
2023-04-08T16:30:51.905Z,52.09
2023-04-08T16:32:38.806Z,52.26
2023-04-08T16:34:05.123Z,52.38
2023-04-08T16:35:50.527Z,52.15
2023-04-08T16:37:35.732Z,52.18
2023-04-08T16:39:29.798Z,52.35
2023-04-08T16:41:22.779Z,52.21
2023-04-08T16:43:16.308Z,52.78
2023-04-08T16:45:08.206Z,52.40
2023-04-08T16:46:53.603Z,52.56
2023-04-08T16:48:47.387Z,53.03
2023-04-08T16:50:32.587Z,52.80
2023-04-08T16:52:08.876Z,53.07
2023-04-08T16:54:02.221Z,53.07
2023-04-08T16:55:35.902Z,53.39
2023-04-08T16:57:09.335Z,53.47
2023-04-08T16:58:51.251Z,53.54
2023-04-08T17:00:34.685Z,53.62
2023-04-08T17:02:08.189Z,54.07
2023-04-08T17:03:49.948Z,54.42
2023-04-08T17:05:35.397Z,54.28
2023-04-08T17:07:09.148Z,54.36
2023-04-08T17:08:43.598Z,54.57
2023-04-08T17:10:28.949Z,54.75
2023-04-08T17:11:55.560Z,54.65
2023-04-08T17:13:23.494Z,54.58
2023-04-08T17:15:05.796Z,54.83
2023-04-08T17:16:40.088Z,54.59
2023-04-08T17:18:20.954Z,54.59
2023-04-08T17:19:56.734Z,54.88
2023-04-08T17:21:42.609Z,54.84
2023-04-08T17:23:27.569Z,54.88
2023-04-08T17:25:21.145Z,54.98
2023-04-08T17:27:01.608Z,54.70
2023-04-08T17:28:35.373Z,55.10
2023-04-08T17:30:20.825Z,55.03
2023-04-08T17:31:54.725Z,54.84
2023-04-08T17:33:30.042Z,55.04
2023-04-08T17:35:05.519Z,54.66
2023-04-08T17:36:39.823Z,54.79
2023-04-08T17:38:20.600Z,55.03
2023-04-08T17:40:15.796Z,54.89
2023-04-08T17:41:49.137Z,55.19
2023-04-08T17:43:25.174Z,55.15
2023-04-08T17:44:58.426Z,55.07
2023-04-08T17:46:22.335Z,55.28
2023-04-08T17:48:09.416Z,55.53
2023-04-08T17:49:44.096Z,55.26
2023-04-08T17:51:19.754Z,56.06
2023-04-08T17:52:51.096Z,55.54
2023-04-08T17:54:26.687Z,55.30
2023-04-08T17:56:13.776Z,55.79
2023-04-08T17:57:54.861Z,55.73
2023-04-08T17:59:40.602Z,55.41
2023-04-08T18:01:02.335Z,55.83
2023-04-08T18:02:32.295Z,56.44
2023-04-08T18:04:17.901Z,56.16
2023-04-08T18:06:12.826Z,56.14
2023-04-08T18:08:07.806Z,56.10
2023-04-08T18:09:48.912Z,56.24
2023-04-08T18:11:30.089Z,56.44
2023-04-08T18:13:07.989Z,56.41
2023-04-08T18:14:45.699Z,56.86
2023-04-08T18:16:18.881Z,56.49
2023-04-08T18:18:05.221Z,56.64
2023-04-08T18:19:38.976Z,56.67
2023-04-08T18:21:33.796Z,56.81
2023-04-08T18:23:00.169Z,56.95
2023-04-08T18:24:45.866Z,57.28
2023-04-08T18:26:14.916Z,56.58
2023-04-08T18:27:43.681Z,56.86
2023-04-08T18:29:18.838Z,57.15
2023-04-08T18:30:43.344Z,57.23
2023-04-08T18:32:25.752Z,57.29
2023-04-08T18:33:48.211Z,57.40
2023-04-08T18:35:10.098Z,57.35
2023-04-08T18:36:44.351Z,57.35
2023-04-08T18:38:13.689Z,57.62
2023-04-08T18:39:50.127Z,57.26
2023-04-08T18:41:34.806Z,57.55
2023-04-08T18:43:15.252Z,57.46
2023-04-08T18:44:49.184Z,57.59
2023-04-08T18:46:25.141Z,57.32
2023-04-08T18:48:06.111Z,57.32
2023-04-08T18:49:38.808Z,57.67
2023-04-08T18:51:12.822Z,57.57
2023-04-08T18:52:49.029Z,57.64
2023-04-08T18:54:25.925Z,57.96
2023-04-08T18:55:49.802Z,58.11
2023-04-08T18:57:11.606Z,57.84
2023-04-08T18:58:48.448Z,57.87
2023-04-08T19:00:22.791Z,58.13
2023-04-08T19:02:02.737Z,58.20
2023-04-08T19:03:36.150Z,58.02
2023-04-08T19:04:59.746Z,58.09
2023-04-08T19:06:35.873Z,57.87
2023-04-08T19:08:09.403Z,58.06
2023-04-08T19:09:43.551Z,58.22
2023-04-08T19:11:28.672Z,58.34
2023-04-08T19:12:51.387Z,58.43
2023-04-08T19:14:27.610Z,58.22
2023-04-08T19:16:01.799Z,58.28
2023-04-08T19:17:24.338Z,58.13
2023-04-08T19:18:48.375Z,58.32
2023-04-08T19:20:33.816Z,58.37
2023-04-08T19:22:07.511Z,58.38
2023-04-08T19:23:32.538Z,58.23
2023-04-08T19:24:55.271Z,58.69
2023-04-08T19:26:24.783Z,58.56
2023-04-08T19:27:46.406Z,58.55
2023-04-08T19:29:31.436Z,58.33
2023-04-08T19:31:05.021Z,58.62
2023-04-08T19:32:35.025Z,58.52
2023-04-08T19:34:15.212Z,58.77
2023-04-08T19:35:37.709Z,58.46
2023-04-08T19:37:07.251Z,58.59
2023-04-08T19:38:36.941Z,59.04
2023-04-08T19:39:58.945Z,58.44
2023-04-08T19:41:28.257Z,59.19
2023-04-08T19:42:52.542Z,58.39
2023-04-08T19:44:14.606Z,58.66
2023-04-08T19:45:36.727Z,58.85
2023-04-08T19:47:10.676Z,58.85
2023-04-08T19:48:56.126Z,58.65
2023-04-08T19:50:32.837Z,59.22
2023-04-08T19:52:06.361Z,58.80
2023-04-08T19:53:58.919Z,59.08
2023-04-08T19:55:35.065Z,58.84
2023-04-08T19:57:15.933Z,59.37
2023-04-08T19:58:50.124Z,59.24
2023-04-08T20:00:23.878Z,59.18
2023-04-08T20:02:08.718Z,59.05
2023-04-08T20:03:32.979Z,59.08
2023-04-08T20:05:26.694Z,59.39
2023-04-08T20:07:12.226Z,59.58
2023-04-08T20:08:42.115Z,59.48
2023-04-08T20:10:03.775Z,59.32
2023-04-08T20:11:28.217Z,59.30
2023-04-08T20:12:52.095Z,59.13
2023-04-08T20:14:37.966Z,59.17
2023-04-08T20:16:18.514Z,59.20
2023-04-08T20:17:40.117Z,59.45
2023-04-08T20:19:03.998Z,59.47
2023-04-08T20:20:39.624Z,59.48
2023-04-08T20:22:03.224Z,59.18
2023-04-08T20:23:32.749Z,59.16
2023-04-08T20:25:08.246Z,59.57
2023-04-08T20:26:41.571Z,59.26
2023-04-08T20:28:30.934Z,59.39
2023-04-08T20:30:07.418Z,59.47
2023-04-08T20:31:29.703Z,59.85
2023-04-08T20:33:21.227Z,59.68
2023-04-08T20:34:56.958Z,59.73
2023-04-08T20:36:25.761Z,59.76
2023-04-08T20:38:01.105Z,59.89
2023-04-08T20:39:41.948Z,59.91
2023-04-08T20:41:15.206Z,60.15
2023-04-08T20:42:50.372Z,60.13
2023-04-08T20:44:32.812Z,59.84
2023-04-08T20:46:17.851Z,60.18
2023-04-08T20:48:00.186Z,60.42
2023-04-08T20:49:50.810Z,60.62
2023-04-08T20:51:33.212Z,60.51
2023-04-08T20:53:13.813Z,60.69
2023-04-08T20:54:50.101Z,60.83
2023-04-08T20:56:23.802Z,60.52
2023-04-08T20:58:13.846Z,60.91
2023-04-08T21:00:02.659Z,61.03
2023-04-08T21:01:48.141Z,60.70
2023-04-08T21:03:33.260Z,61.08
2023-04-08T21:05:02.427Z,61.02
2023-04-08T21:06:24.537Z,61.08
2023-04-08T21:08:09.439Z,61.23
2023-04-08T21:09:45.518Z,61.20
2023-04-08T21:11:16.913Z,61.45
2023-04-08T21:12:50.180Z,61.21
2023-04-08T21:14:14.154Z,61.52